Time;durP1;ratioP1;P1;durP2;ratioP2;P2;SDS_P1;SDS_P2;PMS_P1;PMS_P2;Temp;Humidity;BMP_temperature;BMP_pressure;BME280_temperature;BME280_humidity;BME280_pressure;Samples;Min_cycle;Max_cycle;Signal;HPM_P1;HPM_P2
2022/10/19 00:01:14;;;;;;;;;;;;;;;;;;5093342;28;7524;-80
2022/10/19 00:03:39;;;;;;;;;;;;;;;;;;5093085;28;7918;-79
2022/10/19 00:06:04;;;;;;;;;;;;;;;;;;5093571;28;7524;-83
2022/10/19 00:08:29;;;;;;;;;;;;;;;;;;5093818;28;7616;-78
2022/10/19 00:10:54;;;;;;;;;;;;;;;;;;5093812;28;7583;-78
2022/10/19 00:13:20;;;;;;;;;;;;;;;;;;5091970;28;7536;-81
2022/10/19 00:15:45;;;;;;;;;;;;;;;;;;5094008;28;7508;-76
2022/10/19 00:18:10;;;;;;;;;;;;;;;;;;5093369;28;7615;-76
2022/10/19 00:20:35;;;;;;;;;;;;;;;;;;5093164;28;7512;-76
2022/10/19 00:23:00;;;;;;;;;;;;;;;;;;5092901;28;7532;-76
2022/10/19 00:25:25;;;;;;;;;;;;;;;;;;5093146;28;7957;-78
2022/10/19 00:27:50;;;;;;;;;;;;;;;;;;5091463;28;7539;-79
2022/10/19 00:30:15;;;;;;;;;;;;;;;;;;5092954;28;7520;-79
2022/10/19 00:32:41;;;;;;;;;;;;;;;;;;5092926;28;7623;-78
2022/10/19 00:35:06;;;;;;;;;;;;;;;;;;5093098;28;8112;-79
2022/10/19 00:37:31;;;;;;;;;;;;;;;;;;5092602;28;7978;-78
2022/10/19 00:39:56;;;;;;;;;;;;;;;;;;5092795;28;8078;-75
2022/10/19 00:42:21;;;;;;;;;;;;;;;;;;5092164;28;7532;-76
2022/10/19 00:44:46;;;;;;;;;;;;;;;;;;5092429;28;7622;-76
2022/10/19 00:47:11;;;;;;;;;;;;;;;;;;5092695;28;7527;-75
2022/10/19 00:49:37;;;;;;;;;;;;;;;;;;5092389;28;7528;-76
2022/10/19 00:52:02;;;;;;;;;;;;;;;;;;5092455;28;7539;-75
2022/10/19 00:54:27;;;;;;;;;;;;;;;;;;5090786;28;7513;-77
2022/10/19 00:56:52;;;;;;;;;;;;;;;;;;5092205;28;7528;-76
2022/10/19 00:59:17;;;;;;;;;;;;;;;;;;5092489;28;7531;-75
2022/10/19 01:01:42;;;;;;;;;;;;;;;;;;5092263;28;7520;-76
2022/10/19 01:04:07;;;;;;;;;;;;;;;;;;5092417;28;7512;-75
2022/10/19 01:06:32;;;;;;;;;;;;;;;;;;5091010;28;7512;-76
2022/10/19 01:08:58;;;;;;;;;;;;;;;;;;5092582;28;7524;-75
2022/10/19 01:11:23;;;;;;;;;;;;;;;;;;5106410;28;7520;-77
2022/10/19 01:13:48;;;;;;;;;;;;;;;;;;5096259;28;7532;-76
2022/10/19 01:16:13;;;;;;;;;;;;;;;;;;5093153;28;7524;-76
2022/10/19 01:18:39;;;;;;;;;;;;;;;;;;5092185;28;7534;-77
2022/10/19 01:21:04;;;;;;;;;;;;;;;;;;5092419;28;7535;-77
2022/10/19 01:23:29;;;;;;;;;;;;;;;;;;5092442;28;7519;-75
2022/10/19 01:25:54;;;;;;;;;;;;;;;;;;5092401;28;7524;-75
2022/10/19 01:28:19;;;;;;;;;;;;;;;;;;5091024;28;7516;-75
2022/10/19 01:30:44;;;;;;;;;;;;;;;;;;5092203;28;7527;-76
2022/10/19 01:33:10;;;;;;;;;;;;;;;;;;5092917;28;7547;-77
2022/10/19 01:35:35;;;;;;;;;;;;;;;;;;5092555;28;7524;-76
2022/10/19 01:38:00;;;;;;;;;;;;;;;;;;5091919;28;7527;-76
2022/10/19 01:40:25;;;;;;;;;;;;;;;;;;5091490;28;7668;-77
2022/10/19 01:42:50;;;;;;;;;;;;;;;;;;5092097;28;7544;-77
2022/10/19 01:45:15;;;;;;;;;;;;;;;;;;5092374;28;7520;-77
2022/10/19 01:47:40;;;;;;;;;;;;;;;;;;5092104;28;7983;-75
2022/10/19 01:50:05;;;;;;;;;;;;;;;;;;5091592;28;7528;-76
2022/10/19 01:52:31;;;;;;;;;;;;;;;;;;5091496;28;7610;-76
2022/10/19 01:54:56;;;;;;;;;;;;;;;;;;5094746;28;7540;-75
2022/10/19 01:57:21;;;;;;;;;;;;;;;;;;5095655;28;7520;-76
2022/10/19 01:59:46;;;;;;;;;;;;;;;;;;5096115;28;7562;-76
2022/10/19 02:02:11;;;;;;;;;;;;;;;;;;5095845;28;7521;-77
2022/10/19 02:04:36;;;;;;;;;;;;;;;;;;5096234;28;7516;-77
2022/10/19 02:07:01;;;;;;;;;;;;;;;;;;5098677;28;7528;-77
2022/10/19 02:09:26;;;;;;;;;;;;;;;;;;5098627;28;7535;-75
2022/10/19 02:11:52;;;;;;;;;;;;;;;;;;5096296;28;7524;-75
2022/10/19 02:14:17;;;;;;;;;;;;;;;;;;5095367;28;7532;-76
2022/10/19 02:16:42;;;;;;;;;;;;;;;;;;5094582;28;7512;-76
2022/10/19 02:19:07;;;;;;;;;;;;;;;;;;5095486;28;7635;-76
2022/10/19 02:21:32;;;;;;;;;;;;;;;;;;5095425;28;7587;-77
2022/10/19 02:23:57;;;;;;;;;;;;;;;;;;5093789;28;7516;-77
2022/10/19 02:26:22;;;;;;;;;;;;;;;;;;5095127;28;7532;-75
2022/10/19 02:28:48;;;;;;;;;;;;;;;;;;5094986;28;7528;-74
2022/10/19 02:31:13;;;;;;;;;;;;;;;;;;5094916;28;7528;-76
2022/10/19 02:33:38;;;;;;;;;;;;;;;;;;5094758;28;7531;-74
2022/10/19 02:36:03;;;;;;;;;;;;;;;;;;5094660;28;7524;-77
2022/10/19 02:38:28;;;;;;;;;;;;;;;;;;5093215;28;7519;-76
2022/10/19 02:40:53;;;;;;;;;;;;;;;;;;5094815;28;7520;-77
2022/10/19 02:43:20;;;;;;;;;;;;;;;;;;5094883;28;7536;-75
2022/10/19 02:45:45;;;;;;;;;;;;;;;;;;5094443;28;7524;-75
2022/10/19 02:48:10;;;;;;;;;;;;;;;;;;5093347;28;7524;-77
2022/10/19 02:50:35;;;;;;;;;;;;;;;;;;5094646;28;7535;-77
2022/10/19 02:53:00;;;;;;;;;;;;;;;;;;5094496;28;7538;-76
2022/10/19 02:55:25;;;;;;;;;;;;;;;;;;5094585;28;7669;-76
2022/10/19 02:57:50;;;;;;;;;;;;;;;;;;5094265;28;7928;-77
2022/10/19 03:00:16;;;;;;;;;;;;;;;;;;5094459;28;7540;-77
2022/10/19 03:02:41;;;;;;;;;;;;;;;;;;5094418;28;7528;-77
2022/10/19 03:05:06;;;;;;;;;;;;;;;;;;5094245;28;7528;-77
2022/10/19 03:07:31;;;;;;;;;;;;;;;;;;5093250;28;7528;-77
2022/10/19 03:09:56;;;;;;;;;;;;;;;;;;5094433;28;7548;-77
2022/10/19 03:12:21;;;;;;;;;;;;;;;;;;5094419;28;7536;-77
2022/10/19 03:14:46;;;;;;;;;;;;;;;;;;5094098;28;7539;-77
2022/10/19 03:17:11;;;;;;;;;;;;;;;;;;5094612;28;7528;-77
2022/10/19 03:19:37;;;;;;;;;;;;;;;;;;5094457;28;7532;-76
2022/10/19 03:22:02;;;;;;;;;;;;;;;;;;5094389;28;7536;-75
2022/10/19 03:24:27;;;;;;;;;;;;;;;;;;5094117;28;7524;-75
2022/10/19 03:26:52;;;;;;;;;;;;;;;;;;5094028;28;7524;-76
2022/10/19 03:29:17;;;;;;;;;;;;;;;;;;5094309;28;7577;-76
2022/10/19 03:31:42;;;;;;;;;;;;;;;;;;5096940;28;7532;-78
2022/10/19 03:34:07;;;;;;;;;;;;;;;;;;5108262;28;7527;-81
2022/10/19 03:36:32;;;;;;;;;;;;;;;;;;5099455;28;7538;-78
2022/10/19 03:38:58;;;;;;;;;;;;;;;;;;5099442;28;7531;-77
2022/10/19 03:41:23;;;;;;;;;;;;;;;;;;5093894;28;7532;-76
2022/10/19 03:43:48;;;;;;;;;;;;;;;;;;5093038;28;7532;-78
2022/10/19 03:46:13;;;;;;;;;;;;;;;;;;5091438;28;7975;-79
2022/10/19 03:48:38;;;;;;;;;;;;;;;;;;5092384;28;7859;-80
2022/10/19 03:51:03;;;;;;;;;;;;;;;;;;5092563;28;7547;-80
2022/10/19 03:53:30;;;;;;;;;;;;;;;;;;5093062;28;7547;-80
2022/10/19 03:55:55;;;;;;;;;;;;;;;;;;5093523;28;7512;-78
2022/10/19 03:58:20;;;;;;;;;;;;;;;;;;5093194;28;7528;-78
2022/10/19 04:00:45;;;;;;;;;;;;;;;;;;5092631;28;7574;-78
2022/10/19 04:03:10;;;;;;;;;;;;;;;;;;5092576;28;7586;-80
2022/10/19 04:05:35;;;;;;;;;;;;;;;;;;5092231;28;7577;-79
2022/10/19 04:08:01;;;;;;;;;;;;;;;;;;5092306;28;7547;-78
2022/10/19 04:10:26;;;;;;;;;;;;;;;;;;5091069;28;7527;-77
2022/10/19 04:12:51;;;;;;;;;;;;;;;;;;5092374;28;7540;-78
2022/10/19 04:15:16;;;;;;;;;;;;;;;;;;5091684;28;7566;-78
2022/10/19 04:17:41;;;;;;;;;;;;;;;;;;5091989;28;7601;-79
2022/10/19 04:20:06;;;;;;;;;;;;;;;;;;5091745;28;7532;-78
2022/10/19 04:22:31;;;;;;;;;;;;;;;;;;5092000;28;7573;-80
2022/10/19 04:24:56;;;;;;;;;;;;;;;;;;5090839;28;7524;-78
2022/10/19 04:27:22;;;;;;;;;;;;;;;;;;5097746;28;7546;-80
2022/10/19 04:29:47;;;;;;;;;;;;;;;;;;5098577;28;7520;-79
2022/10/19 04:32:12;;;;;;;;;;;;;;;;;;5092073;28;7532;-79
2022/10/19 04:34:37;;;;;;;;;;;;;;;;;;5092312;28;7531;-80
2022/10/19 04:37:02;;;;;;;;;;;;;;;;;;5091504;28;7546;-79
2022/10/19 04:39:27;;;;;;;;;;;;;;;;;;5091654;28;7546;-79
2022/10/19 04:41:53;;;;;;;;;;;;;;;;;;5092475;28;7524;-76
2022/10/19 04:44:18;;;;;;;;;;;;;;;;;;5096076;28;7517;-80
2022/10/19 04:46:43;;;;;;;;;;;;;;;;;;5095456;28;7520;-78
2022/10/19 04:49:08;;;;;;;;;;;;;;;;;;5093229;28;7589;-76
2022/10/19 04:51:33;;;;;;;;;;;;;;;;;;5092814;28;7516;-74
2022/10/19 04:53:58;;;;;;;;;;;;;;;;;;5092973;28;7635;-76
2022/10/19 04:56:27;;;;;;;;;;;;;;;;;;5092300;28;7516;-76
2022/10/19 04:58:52;;;;;;;;;;;;;;;;;;5092093;28;7535;-68
2022/10/19 05:01:17;;;;;;;;;;;;;;;;;;5091735;28;7513;-67
2022/10/19 05:03:42;;;;;;;;;;;;;;;;;;5091609;28;7598;-68
2022/10/19 05:06:07;;;;;;;;;;;;;;;;;;5091617;28;7669;-67
2022/10/19 05:08:32;;;;;;;;;;;;;;;;;;5091496;28;7550;-68
2022/10/19 05:10:57;;;;;;;;;;;;;;;;;;5091482;28;7532;-70
2022/10/19 05:13:23;;;;;;;;;;;;;;;;;;5091637;28;7524;-75
2022/10/19 05:15:48;;;;;;;;;;;;;;;;;;5090724;28;7581;-73
2022/10/19 05:18:13;;;;;;;;;;;;;;;;;;5089850;28;7516;-72
2022/10/19 05:20:38;;;;;;;;;;;;;;;;;;5091732;28;7525;-73
2022/10/19 05:23:07;;;;;;;;;;;;;;;;;;5089039;28;7528;-73
2022/10/19 05:25:32;;;;;;;;;;;;;;;;;;5080680;28;7523;-73
2022/10/19 05:27:57;;;;;;;;;;;;;;;;;;5091453;28;7520;-73
2022/10/19 05:30:22;;;;;;;;;;;;;;;;;;5090059;28;7599;-75
2022/10/19 05:32:48;;;;;;;;;;;;;;;;;;5080019;28;7721;-73
2022/10/19 05:35:13;;;;;;;;;;;;;;;;;;5081143;28;7546;-75
2022/10/19 05:37:38;;;;;;;;;;;;;;;;;;5091095;28;7532;-73
2022/10/19 05:40:03;;;;;;;;;;;;;;;;;;5090754;28;7528;-72
2022/10/19 05:42:28;;;;;;;;;;;;;;;;;;5090571;28;7525;-72
2022/10/19 05:44:53;;;;;;;;;;;;;;;;;;5090522;28;7520;-77
2022/10/19 05:47:18;;;;;;;;;;;;;;;;;;5086008;28;7634;-73
2022/10/19 05:49:44;;;;;;;;;;;;;;;;;;5089452;28;7539;-84
2022/10/19 05:52:09;;;;;;;;;;;;;;;;;;5091015;28;7528;-76
2022/10/19 05:54:34;;;;;;;;;;;;;;;;;;5096171;28;7524;-75
2022/10/19 05:57:00;;;;;;;;;;;;;;;;;;5090786;28;7548;-75
2022/10/19 05:59:25;;;;;;;;;;;;;;;;;;5092005;28;7532;-76
2022/10/19 06:01:50;;;;;;;;;;;;;;;;;;5091956;28;7547;-73
2022/10/19 06:04:15;;;;;;;;;;;;;;;;;;5091265;28;7524;-72
2022/10/19 06:06:40;;;;;;;;;;;;;;;;;;5090978;28;7532;-71
2022/10/19 06:09:05;;;;;;;;;;;;;;;;;;5090821;28;7528;-73
2022/10/19 06:11:30;;;;;;;;;;;;;;;;;;5090578;28;7625;-70
2022/10/19 06:13:56;;;;;;;;;;;;;;;;;;5091094;28;7554;-72
2022/10/19 06:16:21;;;;;;;;;;;;;;;;;;5090791;28;7634;-73
2022/10/19 06:18:46;;;;;;;;;;;;;;;;;;5091065;28;7539;-74
2022/10/19 06:21:12;;;;;;;;;;;;;;;;;;5090920;28;7524;-73
2022/10/19 06:23:37;;;;;;;;;;;;;;;;;;5090828;28;7531;-75
2022/10/19 06:26:34;;;;;;;;;;;;;;;;;;5142284;27;7615;-72
2022/10/19 06:28:59;;;;;;;;;;;;;;;;;;5108719;28;7532;-68
2022/10/19 06:31:24;;;;;;;;;;;;;;;;;;5108800;28;7532;-68
2022/10/19 06:33:50;;;;;;;;;;;;;;;;;;5108819;28;7539;-68
2022/10/19 06:36:15;;;;;;;;;;;;;;;;;;5108821;28;7620;-68
2022/10/19 06:38:40;;;;;;;;;;;;;;;;;;5108419;28;7531;-67
2022/10/19 06:41:05;;;;;;;;;;;;;;;;;;5108558;28;7531;-67
2022/10/19 06:43:30;;;;;;;;;;;;;;;;;;5108567;28;7531;-69
2022/10/19 06:45:55;;;;;;;;;;;;;;;;;;5108196;28;7532;-71
2022/10/19 06:48:20;;;;;;;;;;;;;;;;;;5107516;28;7607;-72
2022/10/19 06:50:45;;;;;;;;;;;;;;;;;;5109818;28;7516;-71
2022/10/19 06:53:10;;;;;;;;;;;;;;;;;;5108680;28;7524;-74
2022/10/19 06:55:36;;;;;;;;;;;;;;;;;;5108159;28;7642;-73
2022/10/19 06:58:01;;;;;;;;;;;;;;;;;;5105804;28;7528;-72
2022/10/19 07:00:26;;;;;;;;;;;;;;;;;;5107156;28;7528;-73
2022/10/19 07:02:51;;;;;;;;;;;;;;;;;;5106503;28;7526;-73
2022/10/19 07:05:16;;;;;;;;;;;;;;;;;;5105556;28;7528;-75
2022/10/19 07:07:41;;;;;;;;;;;;;;;;;;5106903;28;7534;-72
2022/10/19 07:10:07;;;;;;;;;;;;;;;;;;5106903;28;7600;-72
2022/10/19 07:12:32;;;;;;;;;;;;;;;;;;5105296;28;7522;-73
2022/10/19 07:14:57;;;;;;;;;;;;;;;;;;5106260;28;7627;-69
2022/10/19 07:17:22;;;;;;;;;;;;;;;;;;5106423;28;7524;-72
2022/10/19 07:19:47;;;;;;;;;;;;;;;;;;5106306;28;7574;-73
2022/10/19 07:22:12;;;;;;;;;;;;;;;;;;5105995;28;7570;-72
2022/10/19 07:24:37;;;;;;;;;;;;;;;;;;5106209;28;7520;-73
2022/10/19 07:27:03;;;;;;;;;;;;;;;;;;5104921;28;7516;-73
2022/10/19 07:29:28;;;;;;;;;;;;;;;;;;5105952;28;7524;-72
2022/10/19 07:31:53;;;;;;;;;;;;;;;;;;5105963;28;7532;-72
2022/10/19 07:34:18;;;;;;;;;;;;;;;;;;5105751;28;7653;-73
2022/10/19 07:36:44;;;;;;;;;;;;;;;;;;5097782;28;7581;-73
2022/10/19 07:39:09;;;;;;;;;;;;;;;;;;5092004;28;7528;-75
2022/10/19 07:41:34;;;;;;;;;;;;;;;;;;5092437;28;7516;-71
2022/10/19 07:43:59;;;;;;;;;;;;;;;;;;5092458;28;7520;-72
2022/10/19 07:46:25;;;;;;;;;;;;;;;;;;5088383;28;7535;-70
2022/10/19 07:48:50;;;;;;;;;;;;;;;;;;5092076;28;7528;-70
2022/10/19 07:51:15;;;;;;;;;;;;;;;;;;5091646;28;7560;-69
2022/10/19 07:53:40;;;;;;;;;;;;;;;;;;5091993;28;7549;-70
2022/10/19 07:56:05;;;;;;;;;;;;;;;;;;5091895;28;7627;-71
2022/10/19 07:58:30;;;;;;;;;;;;;;;;;;5092034;28;7615;-70
2022/10/19 08:00:55;;;;;;;;;;;;;;;;;;5091548;28;7540;-72
2022/10/19 08:03:21;;;;;;;;;;;;;;;;;;5090291;28;7512;-74
2022/10/19 08:05:46;;;;;;;;;;;;;;;;;;5091480;28;7544;-73
2022/10/19 08:08:11;;;;;;;;;;;;;;;;;;5092023;28;7528;-73
2022/10/19 08:10:36;;;;;;;;;;;;;;;;;;5092886;28;7547;-72
2022/10/19 08:13:01;;;;;;;;;;;;;;;;;;5091335;28;7592;-70
2022/10/19 08:15:27;;;;;;;;;;;;;;;;;;5091297;28;7581;-69
2022/10/19 08:17:52;;;;;;;;;;;;;;;;;;5097362;28;7517;-69
2022/10/19 08:20:18;;;;;;;;;;;;;;;;;;5091604;28;7535;-72
2022/10/19 08:22:44;;;;;;;;;;;;;;;;;;5093081;28;7620;-71
2022/10/19 08:25:09;;;;;;;;;;;;;;;;;;5091308;28;7554;-70
2022/10/19 08:27:34;;;;;;;;;;;;;;;;;;5092576;28;7517;-70
2022/10/19 08:29:59;;;;;;;;;;;;;;;;;;5092365;28;7516;-70
2022/10/19 08:32:24;;;;;;;;;;;;;;;;;;5092351;28;7512;-70
2022/10/19 08:34:49;;;;;;;;;;;;;;;;;;5092422;28;7623;-70
2022/10/19 08:37:14;;;;;;;;;;;;;;;;;;5092435;28;7607;-69
2022/10/19 08:39:40;;;;;;;;;;;;;;;;;;5092830;28;7512;-76
2022/10/19 08:42:05;;;;;;;;;;;;;;;;;;5092474;28;8148;-72
2022/10/19 08:44:30;;;;;;;;;;;;;;;;;;5090469;28;7524;-78
2022/10/19 08:46:55;;;;;;;;;;;;;;;;;;5092490;28;7551;-76
2022/10/19 08:49:20;;;;;;;;;;;;;;;;;;5089875;28;7521;-76
2022/10/19 09:41:47;;;;;;;;;;;;;;;;;;5135555;27;13440;-73
2022/10/19 10:17:39;;;;;;;;;;;;;;;;;;5132666;27;13541;-74
2022/10/19 10:20:04;;;;;;;;;;;;;;;;;;5097446;28;7520;-74
2022/10/19 10:22:29;;;;;;;;;;;;;;;;;;5098659;28;7556;-76
2022/10/19 10:24:55;;;;;;;;;;;;;;;;;;5096034;28;7525;-73
2022/10/19 10:27:20;;;;;;;;;;;;;;;;;;5097039;28;7531;-74
2022/10/19 10:29:45;;;;;;;;;;;;;;;;;;5095606;28;7577;-75
2022/10/19 10:32:10;;;;;;;;;;;;;;;;;;5094481;28;7525;-75
2022/10/19 10:34:35;;;;;;;;;;;;;;;;;;5098131;28;7534;-74
2022/10/19 10:37:00;;;;;;;;;;;;;;;;;;5097103;28;7528;-74
2022/10/19 10:39:27;;;;;;;;;;;;;;;;;;5105088;28;7524;-74
2022/10/19 10:41:52;;;;;;;;;;;;;;;;;;5103047;28;7528;-74
2022/10/19 10:44:17;;;;;;;;;;;;;;;;;;5094715;28;7526;-78
2022/10/19 10:46:42;;;;;;;;;;;;;;;;;;5089095;28;7599;-75
2022/10/19 10:49:08;;;;;;;;;;;;;;;;;;5088990;28;7617;-75
2022/10/19 10:51:33;;;;;;;;;;;;;;;;;;5088526;28;7532;-74
2022/10/19 10:53:58;;;;;;;;;;;;;;;;;;5088154;28;7528;-74
2022/10/19 10:56:23;;;;;;;;;;;;;;;;;;5087796;28;7651;-76
2022/10/19 10:58:48;;;;;;;;;;;;;;;;;;5086920;28;7524;-75
2022/10/19 11:01:13;;;;;;;;;;;;;;;;;;5087760;28;7528;-74
2022/10/19 11:03:38;;;;;;;;;;;;;;;;;;5087962;28;7525;-75
2022/10/19 11:06:04;;;;;;;;;;;;;;;;;;5120471;28;7515;-74
2022/10/19 11:08:29;;;;;;;;;;;;;;;;;;5087838;28;7536;-74
2022/10/19 11:10:54;;;;;;;;;;;;;;;;;;5087643;28;7528;-73
2022/10/19 11:13:19;;;;;;;;;;;;;;;;;;5066887;28;7632;-72
2022/10/19 11:15:44;;;;;;;;;;;;;;;;;;5066715;28;7536;-81
2022/10/19 11:18:09;;;;;;;;;;;;;;;;;;5098908;28;7529;-73
2022/10/19 11:20:34;;;;;;;;;;;;;;;;;;5066748;28;7556;-76
2022/10/19 11:23:00;;;;;;;;;;;;;;;;;;5066406;28;7528;-75
2022/10/19 11:25:25;;;;;;;;;;;;;;;;;;5065966;28;7623;-75
2022/10/19 11:27:50;;;;;;;;;;;;;;;;;;5059404;28;7557;-74
2022/10/19 11:30:15;;;;;;;;;;;;;;;;;;5054202;28;7520;-77
2022/10/19 11:32:40;;;;;;;;;;;;;;;;;;5070164;28;7631;-74
2022/10/19 11:35:05;;;;;;;;;;;;;;;;;;5078814;28;7516;-74
2022/10/19 11:37:30;;;;;;;;;;;;;;;;;;5079374;28;7978;-74
2022/10/19 11:39:55;;;;;;;;;;;;;;;;;;5074760;28;7520;-74
2022/10/19 11:42:21;;;;;;;;;;;;;;;;;;5073783;28;7524;-74
2022/10/19 11:44:46;;;;;;;;;;;;;;;;;;5074220;28;7536;-76
2022/10/19 11:47:11;;;;;;;;;;;;;;;;;;5073873;28;7552;-74
2022/10/19 11:49:36;;;;;;;;;;;;;;;;;;5074236;28;7531;-76
2022/10/19 11:52:02;;;;;;;;;;;;;;;;;;5074097;28;7533;-76
2022/10/19 11:54:27;;;;;;;;;;;;;;;;;;5074085;28;7520;-76
2022/10/19 11:56:52;;;;;;;;;;;;;;;;;;5073319;28;7532;-74
2022/10/19 11:59:17;;;;;;;;;;;;;;;;;;5073481;28;7509;-74
2022/10/19 12:01:42;;;;;;;;;;;;;;;;;;5073048;28;7516;-74
2022/10/19 12:04:07;;;;;;;;;;;;;;;;;;5073143;28;7525;-74
2022/10/19 12:06:32;;;;;;;;;;;;;;;;;;5073032;28;7574;-74
2022/10/19 12:08:58;;;;;;;;;;;;;;;;;;5073007;28;7525;-74
2022/10/19 12:11:23;;;;;;;;;;;;;;;;;;5072853;28;7516;-74
2022/10/19 12:13:48;;;;;;;;;;;;;;;;;;5073116;28;7520;-74
2022/10/19 12:16:13;;;;;;;;;;;;;;;;;;5073236;28;7635;-74
2022/10/19 12:18:38;;;;;;;;;;;;;;;;;;5072980;28;7525;-74
2022/10/19 12:21:03;;;;;;;;;;;;;;;;;;5072929;28;7516;-74
2022/10/19 12:23:29;;;;;;;;;;;;;;;;;;5072894;28;7536;-74
2022/10/19 12:25:55;;;;;;;;;;;;;;;;;;5072932;28;7524;-75
2022/10/19 12:28:20;;;;;;;;;;;;;;;;;;5072756;28;7865;-74
